sensor_id;sensor_type;location;lat;lon;timestamp;temperature;humidity
935;DHT22;454;53.254;10.400;2023-08-24T04:00:20;17.40;99.90
935;DHT22;454;53.254;10.400;2023-08-24T04:02:47;17.30;99.90
935;DHT22;454;53.254;10.400;2023-08-24T04:05:13;17.30;99.90
935;DHT22;454;53.254;10.400;2023-08-24T04:07:40;17.30;99.90
935;DHT22;454;53.254;10.400;2023-08-24T04:10:08;17.30;99.90
935;DHT22;454;53.254;10.400;2023-08-24T04:12:35;17.30;99.90
935;DHT22;454;53.254;10.400;2023-08-24T04:15:02;17.30;99.90
935;DHT22;454;53.254;10.400;2023-08-24T04:17:31;17.30;99.90
935;DHT22;454;53.254;10.400;2023-08-24T04:19:58;17.30;99.90
935;DHT22;454;53.254;10.400;2023-08-24T04:22:24;17.20;99.90
935;DHT22;454;53.254;10.400;2023-08-24T04:24:51;17.20;99.90
935;DHT22;454;53.254;10.400;2023-08-24T04:27:18;17.20;99.90
935;DHT22;454;53.254;10.400;2023-08-24T04:29:45;17.20;99.90
935;DHT22;454;53.254;10.400;2023-08-24T04:32:11;17.30;99.90
935;DHT22;454;53.254;10.400;2023-08-24T04:34:39;17.30;99.90
935;DHT22;454;53.254;10.400;2023-08-24T04:37:06;17.40;99.90
935;DHT22;454;53.254;10.400;2023-08-24T04:39:33;17.40;99.90
935;DHT22;454;53.254;10.400;2023-08-24T04:42:00;17.50;99.90
935;DHT22;454;53.254;10.400;2023-08-24T04:44:27;17.60;99.90
935;DHT22;454;53.254;10.400;2023-08-24T04:46:54;17.60;99.90
935;DHT22;454;53.254;10.400;2023-08-24T04:49:21;17.70;99.90
935;DHT22;454;53.254;10.400;2023-08-24T04:51:49;17.70;99.90
935;DHT22;454;53.254;10.400;2023-08-24T04:54:15;17.80;99.90
935;DHT22;454;53.254;10.400;2023-08-24T04:56:42;17.80;99.90
935;DHT22;454;53.254;10.400;2023-08-24T04:59:09;17.80;99.90
935;DHT22;454;53.254;10.400;2023-08-24T05:01:36;17.90;99.90
935;DHT22;454;53.254;10.400;2023-08-24T05:04:02;17.90;99.90
935;DHT22;454;53.254;10.400;2023-08-24T05:06:29;17.90;99.90
935;DHT22;454;53.254;10.400;2023-08-24T05:08:57;17.90;99.90
935;DHT22;454;53.254;10.400;2023-08-24T05:11:26;17.90;99.90
935;DHT22;454;53.254;10.400;2023-08-24T05:13:54;18.00;99.90
935;DHT22;454;53.254;10.400;2023-08-24T05:16:21;18.00;99.90
935;DHT22;454;53.254;10.400;2023-08-24T05:18:48;18.00;99.90
935;DHT22;454;53.254;10.400;2023-08-24T05:21:15;18.30;99.90
935;DHT22;454;53.254;10.400;2023-08-24T05:23:41;18.10;99.90
935;DHT22;454;53.254;10.400;2023-08-24T05:26:09;18.10;99.90
935;DHT22;454;53.254;10.400;2023-08-24T05:28:36;18.20;99.90
935;DHT22;454;53.254;10.400;2023-08-24T05:31:03;18.30;99.90
935;DHT22;454;53.254;10.400;2023-08-24T05:33:29;18.30;99.90
935;DHT22;454;53.254;10.400;2023-08-24T05:35:58;18.40;99.90
935;DHT22;454;53.254;10.400;2023-08-24T05:38:25;18.50;99.90
935;DHT22;454;53.254;10.400;2023-08-24T05:40:51;18.60;99.90
935;DHT22;454;53.254;10.400;2023-08-24T05:43:20;18.60;99.90
935;DHT22;454;53.254;10.400;2023-08-24T05:45:47;18.70;99.90
935;DHT22;454;53.254;10.400;2023-08-24T05:48:14;18.70;99.90
935;DHT22;454;53.254;10.400;2023-08-24T05:50:45;18.70;99.90
935;DHT22;454;53.254;10.400;2023-08-24T05:53:12;18.70;99.90
935;DHT22;454;53.254;10.400;2023-08-24T05:55:39;18.60;99.90
935;DHT22;454;53.254;10.400;2023-08-24T05:58:06;18.60;99.90
935;DHT22;454;53.254;10.400;2023-08-24T06:00:34;18.60;99.90
935;DHT22;454;53.254;10.400;2023-08-24T06:03:00;18.60;99.90
935;DHT22;454;53.254;10.400;2023-08-24T06:05:29;18.60;99.90
935;DHT22;454;53.254;10.400;2023-08-24T06:07:57;18.50;99.90
935;DHT22;454;53.254;10.400;2023-08-24T06:10:23;18.50;99.90
935;DHT22;454;53.254;10.400;2023-08-24T06:12:51;18.50;99.90
935;DHT22;454;53.254;10.400;2023-08-24T06:15:18;18.60;99.90
935;DHT22;454;53.254;10.400;2023-08-24T06:17:47;18.70;99.90
935;DHT22;454;53.254;10.400;2023-08-24T06:20:15;19.20;99.90
935;DHT22;454;53.254;10.400;2023-08-24T06:22:42;19.70;99.90
935;DHT22;454;53.254;10.400;2023-08-24T06:25:09;20.10;99.90
935;DHT22;454;53.254;10.400;2023-08-24T06:27:36;20.50;99.90
935;DHT22;454;53.254;10.400;2023-08-24T06:30:03;20.80;99.90
935;DHT22;454;53.254;10.400;2023-08-24T06:32:30;20.80;99.90
935;DHT22;454;53.254;10.400;2023-08-24T06:34:58;20.70;99.90
935;DHT22;454;53.254;10.400;2023-08-24T06:37:25;20.50;99.90
935;DHT22;454;53.254;10.400;2023-08-24T06:39:52;20.40;99.90
935;DHT22;454;53.254;10.400;2023-08-24T06:42:19;20.20;99.90
935;DHT22;454;53.254;10.400;2023-08-24T06:44:46;20.00;99.90
935;DHT22;454;53.254;10.400;2023-08-24T06:47:15;19.90;99.90
935;DHT22;454;53.254;10.400;2023-08-24T06:49:42;20.00;99.90
935;DHT22;454;53.254;10.400;2023-08-24T06:52:10;20.10;99.90
935;DHT22;454;53.254;10.400;2023-08-24T06:54:36;20.10;99.90
935;DHT22;454;53.254;10.400;2023-08-24T06:57:03;20.10;99.90
935;DHT22;454;53.254;10.400;2023-08-24T06:59:30;20.20;99.90
935;DHT22;454;53.254;10.400;2023-08-24T07:01:57;20.20;99.90
935;DHT22;454;53.254;10.400;2023-08-24T07:04:25;20.40;99.90
935;DHT22;454;53.254;10.400;2023-08-24T07:06:52;20.50;99.90
935;DHT22;454;53.254;10.400;2023-08-24T07:09:20;20.50;99.90
935;DHT22;454;53.254;10.400;2023-08-24T07:11:47;20.50;99.90
935;DHT22;454;53.254;10.400;2023-08-24T07:14:14;20.50;99.90
935;DHT22;454;53.254;10.400;2023-08-24T07:16:41;20.50;99.90
935;DHT22;454;53.254;10.400;2023-08-24T07:19:08;20.50;99.90
935;DHT22;454;53.254;10.400;2023-08-24T07:21:35;20.40;99.90
935;DHT22;454;53.254;10.400;2023-08-24T07:24:02;20.30;99.90
935;DHT22;454;53.254;10.400;2023-08-24T07:26:30;20.20;99.90
935;DHT22;454;53.254;10.400;2023-08-24T07:28:57;20.20;99.90
935;DHT22;454;53.254;10.400;2023-08-24T07:31:24;20.20;99.90
935;DHT22;454;53.254;10.400;2023-08-24T07:33:51;20.20;99.90
935;DHT22;454;53.254;10.400;2023-08-24T07:36:17;20.20;99.90
935;DHT22;454;53.254;10.400;2023-08-24T07:38:45;20.20;99.90
935;DHT22;454;53.254;10.400;2023-08-24T07:41:12;20.30;99.90
935;DHT22;454;53.254;10.400;2023-08-24T07:43:40;20.30;99.90
935;DHT22;454;53.254;10.400;2023-08-24T07:46:07;20.50;99.90
935;DHT22;454;53.254;10.400;2023-08-24T07:48:33;20.40;99.90
935;DHT22;454;53.254;10.400;2023-08-24T07:51:00;20.40;99.90
935;DHT22;454;53.254;10.400;2023-08-24T07:53:27;20.50;99.90
935;DHT22;454;53.254;10.400;2023-08-24T07:55:54;20.50;99.90
935;DHT22;454;53.254;10.400;2023-08-24T07:58:21;20.60;99.90
935;DHT22;454;53.254;10.400;2023-08-24T08:00:50;20.60;99.90
935;DHT22;454;53.254;10.400;2023-08-24T08:03:17;20.70;99.90
935;DHT22;454;53.254;10.400;2023-08-24T08:05:44;20.70;99.90
935;DHT22;454;53.254;10.400;2023-08-24T08:08:11;20.80;99.90
935;DHT22;454;53.254;10.400;2023-08-24T08:10:38;20.80;99.90
935;DHT22;454;53.254;10.400;2023-08-24T08:13:05;20.80;99.90
935;DHT22;454;53.254;10.400;2023-08-24T08:15:32;20.90;99.90
935;DHT22;454;53.254;10.400;2023-08-24T08:18:00;20.90;99.90
935;DHT22;454;53.254;10.400;2023-08-24T08:20:26;21.00;99.90
935;DHT22;454;53.254;10.400;2023-08-24T08:22:53;21.10;99.90
935;DHT22;454;53.254;10.400;2023-08-24T08:25:20;21.10;99.90
935;DHT22;454;53.254;10.400;2023-08-24T08:27:47;21.20;99.90
935;DHT22;454;53.254;10.400;2023-08-24T08:30:14;21.20;99.90
935;DHT22;454;53.254;10.400;2023-08-24T08:32:41;21.30;99.90
935;DHT22;454;53.254;10.400;2023-08-24T08:35:09;21.40;99.90
935;DHT22;454;53.254;10.400;2023-08-24T08:37:36;21.50;99.90
935;DHT22;454;53.254;10.400;2023-08-24T08:40:03;21.50;99.90
935;DHT22;454;53.254;10.400;2023-08-24T08:42:31;21.50;99.90
935;DHT22;454;53.254;10.400;2023-08-24T08:44:59;21.70;99.90
935;DHT22;454;53.254;10.400;2023-08-24T08:47:28;21.80;99.90
935;DHT22;454;53.254;10.400;2023-08-24T08:49:55;21.80;99.90
935;DHT22;454;53.254;10.400;2023-08-24T08:52:23;21.80;99.90
935;DHT22;454;53.254;10.400;2023-08-24T08:54:50;21.80;99.90
935;DHT22;454;53.254;10.400;2023-08-24T08:57:19;21.90;99.90
935;DHT22;454;53.254;10.400;2023-08-24T08:59:47;22.10;99.90
935;DHT22;454;53.254;10.400;2023-08-24T09:02:16;22.10;99.90
935;DHT22;454;53.254;10.400;2023-08-24T09:04:45;22.20;99.90
935;DHT22;454;53.254;10.400;2023-08-24T09:07:14;22.30;99.90
935;DHT22;454;53.254;10.400;2023-08-24T09:09:42;22.40;99.90
935;DHT22;454;53.254;10.400;2023-08-24T09:12:09;22.40;99.90
935;DHT22;454;53.254;10.400;2023-08-24T09:14:36;22.40;99.90
935;DHT22;454;53.254;10.400;2023-08-24T09:17:03;22.50;99.90
935;DHT22;454;53.254;10.400;2023-08-24T09:19:31;22.50;99.90
935;DHT22;454;53.254;10.400;2023-08-24T09:21:58;22.60;99.90
935;DHT22;454;53.254;10.400;2023-08-24T09:24:31;22.70;99.90
935;DHT22;454;53.254;10.400;2023-08-24T09:27:00;22.60;99.90
935;DHT22;454;53.254;10.400;2023-08-24T09:29:27;22.70;99.90
935;DHT22;454;53.254;10.400;2023-08-24T09:31:54;22.70;99.90
935;DHT22;454;53.254;10.400;2023-08-24T09:34:24;22.80;99.90
935;DHT22;454;53.254;10.400;2023-08-24T09:36:52;22.90;99.90
935;DHT22;454;53.254;10.400;2023-08-24T09:39:20;23.00;99.90
935;DHT22;454;53.254;10.400;2023-08-24T09:41:48;23.10;99.90
935;DHT22;454;53.254;10.400;2023-08-24T09:44:18;23.10;99.90
935;DHT22;454;53.254;10.400;2023-08-24T09:46:44;23.20;99.90
935;DHT22;454;53.254;10.400;2023-08-24T09:49:12;23.20;99.90
935;DHT22;454;53.254;10.400;2023-08-24T09:51:39;23.20;99.90
935;DHT22;454;53.254;10.400;2023-08-24T09:54:07;23.30;99.90
935;DHT22;454;53.254;10.400;2023-08-24T09:56:35;23.30;99.90
935;DHT22;454;53.254;10.400;2023-08-24T09:59:10;23.30;99.90
935;DHT22;454;53.254;10.400;2023-08-24T10:01:40;23.30;99.90
935;DHT22;454;53.254;10.400;2023-08-24T10:04:09;23.30;99.90
935;DHT22;454;53.254;10.400;2023-08-24T10:06:36;23.50;99.90
935;DHT22;454;53.254;10.400;2023-08-24T10:09:07;23.60;99.90
935;DHT22;454;53.254;10.400;2023-08-24T10:11:36;23.50;99.90
935;DHT22;454;53.254;10.400;2023-08-24T10:14:18;23.60;99.90
935;DHT22;454;53.254;10.400;2023-08-24T10:16:47;23.60;99.90
935;DHT22;454;53.254;10.400;2023-08-24T10:19:14;23.60;99.90
935;DHT22;454;53.254;10.400;2023-08-24T10:21:42;23.70;99.90
935;DHT22;454;53.254;10.400;2023-08-24T10:24:09;23.90;99.90
935;DHT22;454;53.254;10.400;2023-08-24T10:26:39;23.90;99.90
935;DHT22;454;53.254;10.400;2023-08-24T10:29:06;23.90;99.90
935;DHT22;454;53.254;10.400;2023-08-24T10:31:33;23.80;99.90
935;DHT22;454;53.254;10.400;2023-08-24T10:34:04;23.90;99.90
935;DHT22;454;53.254;10.400;2023-08-24T10:36:31;24.00;99.90
935;DHT22;454;53.254;10.400;2023-08-24T10:39:02;24.10;99.90
935;DHT22;454;53.254;10.400;2023-08-24T10:41:46;24.20;99.90
935;DHT22;454;53.254;10.400;2023-08-24T10:44:20;24.00;99.90
935;DHT22;454;53.254;10.400;2023-08-24T10:47:05;24.00;99.90
935;DHT22;454;53.254;10.400;2023-08-24T10:49:33;23.90;99.90
935;DHT22;454;53.254;10.400;2023-08-24T10:52:18;23.90;99.90
935;DHT22;454;53.254;10.400;2023-08-24T10:54:46;23.90;99.90
935;DHT22;454;53.254;10.400;2023-08-24T10:57:21;24.00;99.90
935;DHT22;454;53.254;10.400;2023-08-24T10:59:58;24.00;99.90
935;DHT22;454;53.254;10.400;2023-08-24T11:02:26;24.10;99.90
935;DHT22;454;53.254;10.400;2023-08-24T11:05:07;24.20;99.90
935;DHT22;454;53.254;10.400;2023-08-24T11:07:34;24.30;99.90
935;DHT22;454;53.254;10.400;2023-08-24T11:10:11;24.40;99.90
935;DHT22;454;53.254;10.400;2023-08-24T11:13:09;24.50;99.90
935;DHT22;454;53.254;10.400;2023-08-24T11:15:38;24.60;99.90
935;DHT22;454;53.254;10.400;2023-08-24T11:18:22;24.60;99.90
935;DHT22;454;53.254;10.400;2023-08-24T11:20:52;24.60;99.90
935;DHT22;454;53.254;10.400;2023-08-24T11:23:21;24.70;99.90
935;DHT22;454;53.254;10.400;2023-08-24T11:25:50;24.70;99.90
935;DHT22;454;53.254;10.400;2023-08-24T11:28:20;24.70;99.90
935;DHT22;454;53.254;10.400;2023-08-24T11:30:48;24.70;99.90
935;DHT22;454;53.254;10.400;2023-08-24T11:33:16;24.80;99.90
935;DHT22;454;53.254;10.400;2023-08-24T11:35:44;24.90;99.90
935;DHT22;454;53.254;10.400;2023-08-24T11:38:12;25.00;99.90
935;DHT22;454;53.254;10.400;2023-08-24T11:40:39;25.00;99.90
935;DHT22;454;53.254;10.400;2023-08-24T11:43:06;25.00;99.90
935;DHT22;454;53.254;10.400;2023-08-24T11:45:34;25.10;99.90
935;DHT22;454;53.254;10.400;2023-08-24T11:48:03;25.10;99.90
935;DHT22;454;53.254;10.400;2023-08-24T11:50:31;25.20;99.90
935;DHT22;454;53.254;10.400;2023-08-24T11:52:57;25.20;99.90
935;DHT22;454;53.254;10.400;2023-08-24T11:55:26;25.00;99.90
935;DHT22;454;53.254;10.400;2023-08-24T11:57:53;25.40;99.90
935;DHT22;454;53.254;10.400;2023-08-24T12:00:21;25.50;99.90
935;DHT22;454;53.254;10.400;2023-08-24T12:02:48;25.60;99.90
935;DHT22;454;53.254;10.400;2023-08-24T12:05:23;25.70;99.90
935;DHT22;454;53.254;10.400;2023-08-24T12:07:51;25.70;99.90
935;DHT22;454;53.254;10.400;2023-08-24T12:10:19;25.80;99.90
935;DHT22;454;53.254;10.400;2023-08-24T12:12:47;25.80;99.90
935;DHT22;454;53.254;10.400;2023-08-24T12:15:18;25.80;99.90
935;DHT22;454;53.254;10.400;2023-08-24T12:17:46;25.90;99.90
935;DHT22;454;53.254;10.400;2023-08-24T12:20:20;25.90;99.90
935;DHT22;454;53.254;10.400;2023-08-24T12:22:51;25.80;99.90
935;DHT22;454;53.254;10.400;2023-08-24T12:25:18;25.80;99.90
935;DHT22;454;53.254;10.400;2023-08-24T12:27:50;26.00;99.90
935;DHT22;454;53.254;10.400;2023-08-24T12:30:16;26.10;99.90
935;DHT22;454;53.254;10.400;2023-08-24T12:32:44;26.20;99.90
935;DHT22;454;53.254;10.400;2023-08-24T12:35:10;26.30;99.90
935;DHT22;454;53.254;10.400;2023-08-24T12:37:36;26.60;99.90
935;DHT22;454;53.254;10.400;2023-08-24T12:40:04;26.70;99.90
935;DHT22;454;53.254;10.400;2023-08-24T12:42:31;26.70;99.90
935;DHT22;454;53.254;10.400;2023-08-24T12:44:59;26.80;99.90
935;DHT22;454;53.254;10.400;2023-08-24T12:47:26;26.80;99.90
935;DHT22;454;53.254;10.400;2023-08-24T12:49:52;26.70;99.90
935;DHT22;454;53.254;10.400;2023-08-24T12:52:22;26.70;99.90
935;DHT22;454;53.254;10.400;2023-08-24T12:54:50;26.60;99.90
935;DHT22;454;53.254;10.400;2023-08-24T12:57:16;26.60;99.90
935;DHT22;454;53.254;10.400;2023-08-24T12:59:43;26.50;99.90
935;DHT22;454;53.254;10.400;2023-08-24T13:02:13;26.40;99.90
935;DHT22;454;53.254;10.400;2023-08-24T13:04:39;26.50;99.90
935;DHT22;454;53.254;10.400;2023-08-24T13:07:06;26.60;99.90
935;DHT22;454;53.254;10.400;2023-08-24T13:09:34;26.60;99.90
935;DHT22;454;53.254;10.400;2023-08-24T13:12:01;26.70;99.90
935;DHT22;454;53.254;10.400;2023-08-24T13:14:28;26.80;99.90
935;DHT22;454;53.254;10.400;2023-08-24T13:16:55;26.80;99.90
935;DHT22;454;53.254;10.400;2023-08-24T13:19:23;26.80;99.90
935;DHT22;454;53.254;10.400;2023-08-24T13:21:49;26.70;99.90
935;DHT22;454;53.254;10.400;2023-08-24T13:24:16;26.70;99.90
935;DHT22;454;53.254;10.400;2023-08-24T13:26:43;26.60;99.90
935;DHT22;454;53.254;10.400;2023-08-24T13:29:09;26.70;99.90
935;DHT22;454;53.254;10.400;2023-08-24T13:31:36;26.60;99.90
935;DHT22;454;53.254;10.400;2023-08-24T13:34:03;26.70;99.90
935;DHT22;454;53.254;10.400;2023-08-24T13:36:34;26.60;99.90
935;DHT22;454;53.254;10.400;2023-08-24T13:39:00;26.60;99.90
935;DHT22;454;53.254;10.400;2023-08-24T13:41:28;26.60;99.90
935;DHT22;454;53.254;10.400;2023-08-24T13:43:54;26.70;99.90
935;DHT22;454;53.254;10.400;2023-08-24T13:46:21;26.70;99.90
935;DHT22;454;53.254;10.400;2023-08-24T13:48:48;26.90;99.90
935;DHT22;454;53.254;10.400;2023-08-24T13:51:14;26.90;99.90
935;DHT22;454;53.254;10.400;2023-08-24T13:53:42;26.70;99.90
935;DHT22;454;53.254;10.400;2023-08-24T13:56:09;26.70;99.90
935;DHT22;454;53.254;10.400;2023-08-24T13:58:36;26.70;99.90
935;DHT22;454;53.254;10.400;2023-08-24T14:01:03;26.80;99.90
935;DHT22;454;53.254;10.400;2023-08-24T14:03:29;26.90;99.90
935;DHT22;454;53.254;10.400;2023-08-24T14:05:56;27.00;99.90
935;DHT22;454;53.254;10.400;2023-08-24T14:08:23;27.00;99.90
935;DHT22;454;53.254;10.400;2023-08-24T14:10:53;27.00;99.90
935;DHT22;454;53.254;10.400;2023-08-24T14:13:19;26.90;99.90
935;DHT22;454;53.254;10.400;2023-08-24T14:15:47;27.00;99.90
935;DHT22;454;53.254;10.400;2023-08-24T14:18:15;27.00;99.90
935;DHT22;454;53.254;10.400;2023-08-24T14:20:42;27.10;99.90
935;DHT22;454;53.254;10.400;2023-08-24T14:23:09;27.10;99.90
935;DHT22;454;53.254;10.400;2023-08-24T14:25:35;27.10;99.90
935;DHT22;454;53.254;10.400;2023-08-24T14:28:04;27.20;99.90
935;DHT22;454;53.254;10.400;2023-08-24T14:30:30;27.20;99.90
935;DHT22;454;53.254;10.400;2023-08-24T14:32:57;27.10;99.90
935;DHT22;454;53.254;10.400;2023-08-24T14:35:24;27.10;99.90
935;DHT22;454;53.254;10.400;2023-08-24T14:37:50;27.10;99.90
935;DHT22;454;53.254;10.400;2023-08-24T14:40:17;27.10;99.90
935;DHT22;454;53.254;10.400;2023-08-24T14:42:45;27.00;99.90
935;DHT22;454;53.254;10.400;2023-08-24T14:45:15;27.00;99.90
935;DHT22;454;53.254;10.400;2023-08-24T14:47:43;27.00;99.90
935;DHT22;454;53.254;10.400;2023-08-24T14:50:10;27.00;99.90
935;DHT22;454;53.254;10.400;2023-08-24T14:52:36;27.10;99.90
935;DHT22;454;53.254;10.400;2023-08-24T14:55:04;27.00;99.90
935;DHT22;454;53.254;10.400;2023-08-24T14:57:31;27.10;99.90
935;DHT22;454;53.254;10.400;2023-08-24T14:59:57;27.10;99.90
935;DHT22;454;53.254;10.400;2023-08-24T15:02:25;27.00;99.90
935;DHT22;454;53.254;10.400;2023-08-24T15:04:52;26.90;99.90
935;DHT22;454;53.254;10.400;2023-08-24T15:07:19;26.90;99.90
935;DHT22;454;53.254;10.400;2023-08-24T15:09:45;26.90;99.90
935;DHT22;454;53.254;10.400;2023-08-24T15:12:12;26.80;99.90
935;DHT22;454;53.254;10.400;2023-08-24T15:14:56;26.90;99.90
935;DHT22;454;53.254;10.400;2023-08-24T15:17:24;26.80;99.90
935;DHT22;454;53.254;10.400;2023-08-24T15:19:51;26.70;99.90
935;DHT22;454;53.254;10.400;2023-08-24T15:22:18;26.70;99.90
935;DHT22;454;53.254;10.400;2023-08-24T15:24:44;26.60;99.90
935;DHT22;454;53.254;10.400;2023-08-24T15:27:11;26.60;99.90
935;DHT22;454;53.254;10.400;2023-08-24T15:29:38;26.60;99.90
935;DHT22;454;53.254;10.400;2023-08-24T15:32:05;26.60;99.90
935;DHT22;454;53.254;10.400;2023-08-24T15:34:33;26.60;99.90
935;DHT22;454;53.254;10.400;2023-08-24T15:37:00;26.60;99.90
935;DHT22;454;53.254;10.400;2023-08-24T15:39:26;26.60;99.90
935;DHT22;454;53.254;10.400;2023-08-24T15:41:53;26.50;99.90
935;DHT22;454;53.254;10.400;2023-08-24T15:44:20;26.50;99.90
935;DHT22;454;53.254;10.400;2023-08-24T15:46:47;26.50;99.90
935;DHT22;454;53.254;10.400;2023-08-24T15:49:13;26.40;99.90
935;DHT22;454;53.254;10.400;2023-08-24T15:51:41;26.40;99.90
935;DHT22;454;53.254;10.400;2023-08-24T15:54:08;26.40;99.90
935;DHT22;454;53.254;10.400;2023-08-24T15:56:35;26.40;99.90
935;DHT22;454;53.254;10.400;2023-08-24T15:59:02;26.40;99.90
935;DHT22;454;53.254;10.400;2023-08-24T16:01:28;26.40;99.90
935;DHT22;454;53.254;10.400;2023-08-24T16:03:55;26.40;99.90
935;DHT22;454;53.254;10.400;2023-08-24T16:06:22;26.40;99.90
935;DHT22;454;53.254;10.400;2023-08-24T16:08:50;26.30;99.90
935;DHT22;454;53.254;10.400;2023-08-24T16:11:17;26.30;99.90
935;DHT22;454;53.254;10.400;2023-08-24T16:13:43;26.20;99.90
935;DHT22;454;53.254;10.400;2023-08-24T16:16:10;26.20;99.90
935;DHT22;454;53.254;10.400;2023-08-24T16:18:37;26.20;99.90
935;DHT22;454;53.254;10.400;2023-08-24T16:21:03;26.20;99.90
935;DHT22;454;53.254;10.400;2023-08-24T16:23:30;26.10;99.90
935;DHT22;454;53.254;10.400;2023-08-24T16:25:58;26.10;99.90
935;DHT22;454;53.254;10.400;2023-08-24T16:28:25;26.10;99.90
935;DHT22;454;53.254;10.400;2023-08-24T16:30:52;26.00;99.90
935;DHT22;454;53.254;10.400;2023-08-24T16:33:19;26.00;99.90
935;DHT22;454;53.254;10.400;2023-08-24T16:35:46;26.00;99.90
935;DHT22;454;53.254;10.400;2023-08-24T16:38:13;25.90;99.90
935;DHT22;454;53.254;10.400;2023-08-24T16:40:39;25.90;99.90
935;DHT22;454;53.254;10.400;2023-08-24T16:43:08;25.90;99.90
935;DHT22;454;53.254;10.400;2023-08-24T16:45:35;25.80;99.90
935;DHT22;454;53.254;10.400;2023-08-24T16:48:02;25.80;99.90
935;DHT22;454;53.254;10.400;2023-08-24T16:50:29;25.80;99.90
935;DHT22;454;53.254;10.400;2023-08-24T16:52:56;25.80;99.90
935;DHT22;454;53.254;10.400;2023-08-24T16:55:23;25.70;99.90
935;DHT22;454;53.254;10.400;2023-08-24T16:57:49;25.70;99.90
935;DHT22;454;53.254;10.400;2023-08-24T17:00:18;25.60;99.90
935;DHT22;454;53.254;10.400;2023-08-24T17:02:45;25.60;99.90
935;DHT22;454;53.254;10.400;2023-08-24T17:05:12;25.60;99.90
935;DHT22;454;53.254;10.400;2023-08-24T17:07:39;25.60;99.90
935;DHT22;454;53.254;10.400;2023-08-24T17:10:07;25.50;99.90
935;DHT22;454;53.254;10.400;2023-08-24T17:12:34;25.50;99.90
935;DHT22;454;53.254;10.400;2023-08-24T17:15:02;25.40;99.90
935;DHT22;454;53.254;10.400;2023-08-24T17:17:30;25.30;99.90
935;DHT22;454;53.254;10.400;2023-08-24T17:19:57;25.30;99.90
935;DHT22;454;53.254;10.400;2023-08-24T17:22:24;25.20;99.90
935;DHT22;454;53.254;10.400;2023-08-24T17:24:51;25.10;99.90
935;DHT22;454;53.254;10.400;2023-08-24T17:27:18;25.10;99.90
935;DHT22;454;53.254;10.400;2023-08-24T17:29:45;25.00;99.90
935;DHT22;454;53.254;10.400;2023-08-24T17:32:13;25.00;99.90
935;DHT22;454;53.254;10.400;2023-08-24T17:34:41;24.90;99.90
935;DHT22;454;53.254;10.400;2023-08-24T17:37:08;24.80;99.90
935;DHT22;454;53.254;10.400;2023-08-24T17:39:34;24.80;99.90
935;DHT22;454;53.254;10.400;2023-08-24T17:42:01;24.70;99.90
935;DHT22;454;53.254;10.400;2023-08-24T17:44:28;24.70;99.90
935;DHT22;454;53.254;10.400;2023-08-24T17:46:55;24.60;99.90
935;DHT22;454;53.254;10.400;2023-08-24T17:49:22;24.50;99.90
935;DHT22;454;53.254;10.400;2023-08-24T17:51:50;24.50;99.90
935;DHT22;454;53.254;10.400;2023-08-24T17:54:17;24.50;99.90
935;DHT22;454;53.254;10.400;2023-08-24T17:56:43;24.50;99.90
935;DHT22;454;53.254;10.400;2023-08-24T17:59:10;24.40;99.90
935;DHT22;454;53.254;10.400;2023-08-24T18:01:37;24.40;99.90
935;DHT22;454;53.254;10.400;2023-08-24T18:04:04;24.30;99.90
935;DHT22;454;53.254;10.400;2023-08-24T18:06:30;24.30;99.90
935;DHT22;454;53.254;10.400;2023-08-24T18:08:58;24.20;99.90
935;DHT22;454;53.254;10.400;2023-08-24T18:11:29;24.20;99.90
935;DHT22;454;53.254;10.400;2023-08-24T18:13:56;24.20;99.90
935;DHT22;454;53.254;10.400;2023-08-24T18:16:23;24.10;99.90
935;DHT22;454;53.254;10.400;2023-08-24T18:18:50;24.10;99.90
935;DHT22;454;53.254;10.400;2023-08-24T18:21:17;24.10;99.90
935;DHT22;454;53.254;10.400;2023-08-24T18:23:44;24.10;99.90
935;DHT22;454;53.254;10.400;2023-08-24T18:26:12;24.00;99.90
935;DHT22;454;53.254;10.400;2023-08-24T18:28:39;24.00;99.90
935;DHT22;454;53.254;10.400;2023-08-24T18:31:06;24.00;99.90
935;DHT22;454;53.254;10.400;2023-08-24T18:33:33;23.90;99.90
935;DHT22;454;53.254;10.400;2023-08-24T18:36:00;23.90;99.90
935;DHT22;454;53.254;10.400;2023-08-24T18:38:26;23.90;99.90
935;DHT22;454;53.254;10.400;2023-08-24T18:40:53;24.00;99.90
935;DHT22;454;53.254;10.400;2023-08-24T18:43:22;24.00;99.90
935;DHT22;454;53.254;10.400;2023-08-24T18:45:59;24.00;99.90
935;DHT22;454;53.254;10.400;2023-08-24T18:48:27;24.00;99.90
935;DHT22;454;53.254;10.400;2023-08-24T18:50:53;24.00;99.90
935;DHT22;454;53.254;10.400;2023-08-24T18:53:20;24.00;99.90
935;DHT22;454;53.254;10.400;2023-08-24T18:55:51;23.90;99.90
935;DHT22;454;53.254;10.400;2023-08-24T18:58:18;23.80;99.90
935;DHT22;454;53.254;10.400;2023-08-24T19:00:46;23.70;99.90
935;DHT22;454;53.254;10.400;2023-08-24T19:03:13;23.70;99.90
935;DHT22;454;53.254;10.400;2023-08-24T19:05:39;23.60;99.90
935;DHT22;454;53.254;10.400;2023-08-24T19:08:06;23.60;99.90
935;DHT22;454;53.254;10.400;2023-08-24T19:10:33;23.50;99.90
935;DHT22;454;53.254;10.400;2023-08-24T19:13:00;23.60;99.90
935;DHT22;454;53.254;10.400;2023-08-24T19:15:27;23.60;99.90
935;DHT22;454;53.254;10.400;2023-08-24T19:17:55;23.50;99.90
935;DHT22;454;53.254;10.400;2023-08-24T19:20:22;23.50;99.90
935;DHT22;454;53.254;10.400;2023-08-24T19:22:48;23.50;99.90
935;DHT22;454;53.254;10.400;2023-08-24T19:25:15;23.50;99.90
935;DHT22;454;53.254;10.400;2023-08-24T19:27:42;23.50;99.90
935;DHT22;454;53.254;10.400;2023-08-24T19:30:09;23.50;99.90
935;DHT22;454;53.254;10.400;2023-08-24T19:32:36;23.50;99.90
935;DHT22;454;53.254;10.400;2023-08-24T19:35:05;23.40;99.90
935;DHT22;454;53.254;10.400;2023-08-24T19:37:32;23.40;99.90
935;DHT22;454;53.254;10.400;2023-08-24T19:39:58;23.30;99.90
935;DHT22;454;53.254;10.400;2023-08-24T19:42:25;23.20;99.90
935;DHT22;454;53.254;10.400;2023-08-24T19:44:53;23.10;99.90
935;DHT22;454;53.254;10.400;2023-08-24T19:47:19;23.00;99.90
935;DHT22;454;53.254;10.400;2023-08-24T19:49:48;23.00;99.90
935;DHT22;454;53.254;10.400;2023-08-24T19:52:16;23.00;99.90
935;DHT22;454;53.254;10.400;2023-08-24T19:54:43;22.90;99.90
935;DHT22;454;53.254;10.400;2023-08-24T19:57:09;22.90;99.90
935;DHT22;454;53.254;10.400;2023-08-24T19:59:39;22.90;99.90
935;DHT22;454;53.254;10.400;2023-08-24T20:02:06;22.90;99.90
935;DHT22;454;53.254;10.400;2023-08-24T20:04:32;22.90;99.90
935;DHT22;454;53.254;10.400;2023-08-24T20:07:00;22.80;99.90
935;DHT22;454;53.254;10.400;2023-08-24T20:09:29;22.50;99.90
935;DHT22;454;53.254;10.400;2023-08-24T20:11:55;22.10;99.90
935;DHT22;454;53.254;10.400;2023-08-24T20:14:22;21.90;99.90
935;DHT22;454;53.254;10.400;2023-08-24T20:16:49;21.80;99.90
935;DHT22;454;53.254;10.400;2023-08-24T20:19:16;21.60;99.90